Time;durP1;ratioP1;P1;durP2;ratioP2;P2;SDS_P1;SDS_P2;PMS_P1;PMS_P2;Temp;Humidity;BMP_temperature;BMP_pressure;BME280_temperature;BME280_humidity;BME280_pressure;Samples;Min_cycle;Max_cycle;Signal;HPM_P1;HPM_P2
2023/11/30 00:02:04;;;;;;;3.40;2.50;;;2.80;80.40;;;;;;5048587;28;20119;-59
2023/11/30 00:04:29;;;;;;;3.90;2.50;;;2.90;80.40;;;;;;5050143;28;20148;-59
2023/11/30 00:06:55;;;;;;;3.67;2.75;;;2.90;80.40;;;;;;5057669;28;20037;-59
2023/11/30 00:09:20;;;;;;;4.32;2.08;;;2.80;80.30;;;;;;5056083;28;20035;-59
2023/11/30 00:11:46;;;;;;;4.32;2.42;;;2.80;80.40;;;;;;5053345;28;20036;-59
2023/11/30 00:14:12;;;;;;;3.47;2.60;;;2.80;80.40;;;;;;5058095;28;20541;-59
2023/11/30 00:16:38;;;;;;;3.03;2.25;;;2.80;80.40;;;;;;5062426;28;20046;-59
2023/11/30 00:19:03;;;;;;;5.22;2.70;;;2.80;80.40;;;;;;5059825;28;20045;-59
2023/11/30 00:21:29;;;;;;;6.10;2.70;;;2.80;80.30;;;;;;5057776;28;20547;-59
2023/11/30 00:23:55;;;;;;;2.28;2.00;;;2.80;80.30;;;;;;5060897;28;20082;-59
2023/11/30 00:26:20;;;;;;;3.17;2.10;;;2.70;80.20;;;;;;5059929;28;20041;-60
2023/11/30 00:28:46;;;;;;;4.28;2.60;;;2.80;80.20;;;;;;5055779;28;20061;-60
2023/11/30 00:31:12;;;;;;;4.32;2.40;;;2.80;80.20;;;;;;5050562;28;20033;-60
2023/11/30 00:33:37;;;;;;;4.30;2.88;;;2.70;80.10;;;;;;5059319;28;20399;-60
2023/11/30 00:36:06;;;;;;;4.07;2.28;;;2.70;80.20;;;;;;5054858;28;20037;-60
2023/11/30 00:38:32;;;;;;;3.75;2.63;;;2.70;80.30;;;;;;5054408;28;20698;-60
2023/11/30 00:40:57;;;;;;;3.28;2.33;;;2.60;80.20;;;;;;5056942;28;20032;-60
2023/11/30 00:43:23;;;;;;;2.97;2.58;;;2.60;80.20;;;;;;5062339;28;20086;-59
2023/11/30 00:45:49;;;;;;;2.88;2.33;;;2.60;80.10;;;;;;5051248;28;20040;-60
2023/11/30 00:48:14;;;;;;;4.45;2.70;;;2.60;80.10;;;;;;5054309;28;20461;-60
2023/11/30 00:50:40;;;;;;;4.05;2.45;;;2.60;80.10;;;;;;5061993;28;20033;-60
2023/11/30 00:53:06;;;;;;;3.08;2.55;;;2.60;80.10;;;;;;5052201;28;20029;-60
2023/11/30 00:55:31;;;;;;;3.90;2.63;;;2.60;80.20;;;;;;5055119;28;20064;-60
2023/11/30 00:57:57;;;;;;;4.57;2.83;;;2.60;80.20;;;;;;5053684;28;20376;-60
2023/11/30 01:00:23;;;;;;;2.88;2.20;;;2.50;80.10;;;;;;5060616;28;20044;-60
2023/11/30 01:02:48;;;;;;;3.25;2.30;;;2.50;80.10;;;;;;5031476;28;20022;-60
2023/11/30 01:05:14;;;;;;;3.20;2.53;;;2.50;80.20;;;;;;5053363;28;20056;-60
2023/11/30 01:07:40;;;;;;;4.30;2.72;;;2.40;80.10;;;;;;5054481;28;20033;-60
2023/11/30 01:10:06;;;;;;;3.58;2.28;;;2.50;80.20;;;;;;5056086;28;20261;-60
2023/11/30 01:12:33;;;;;;;4.25;2.95;;;2.40;80.20;;;;;;5051546;28;20031;-60
2023/11/30 01:14:59;;;;;;;6.40;2.47;;;2.50;80.30;;;;;;5057343;28;20051;-60
2023/11/30 01:17:25;;;;;;;5.85;3.30;;;2.40;80.20;;;;;;5056902;28;20037;-60
2023/11/30 01:19:50;;;;;;;2.67;1.95;;;2.40;80.20;;;;;;5057204;28;20029;-60
2023/11/30 01:22:16;;;;;;;3.55;2.25;;;2.50;80.20;;;;;;5063039;28;20511;-60
2023/11/30 01:24:42;;;;;;;3.95;2.63;;;2.40;80.10;;;;;;5059567;28;20040;-60
2023/11/30 01:27:08;;;;;;;3.75;2.35;;;2.40;80.00;;;;;;5062154;28;20024;-60
2023/11/30 01:29:33;;;;;;;3.40;2.97;;;2.40;80.00;;;;;;5051430;28;20101;-60
2023/11/30 01:31:59;;;;;;;6.15;3.45;;;2.40;80.10;;;;;;5048294;28;20068;-60
2023/11/30 01:34:25;;;;;;;6.43;3.00;;;2.40;80.10;;;;;;5050569;28;20044;-60
2023/11/30 01:36:51;;;;;;;2.63;2.30;;;2.40;80.20;;;;;;5056417;28;20036;-60
2023/11/30 01:39:16;;;;;;;4.32;2.63;;;2.40;80.10;;;;;;5054437;28;20056;-59
2023/11/30 01:41:42;;;;;;;3.13;2.00;;;2.40;80.00;;;;;;5055907;28;20465;-60
2023/11/30 01:44:09;;;;;;;4.18;2.55;;;2.50;80.00;;;;;;5059910;28;20048;-60
2023/11/30 01:46:36;;;;;;;4.63;3.25;;;2.50;80.00;;;;;;5048904;28;20071;-60
2023/11/30 01:49:05;;;;;;;3.10;2.20;;;2.50;80.00;;;;;;5054978;28;20369;-60
2023/11/30 01:51:31;;;;;;;3.78;2.28;;;2.50;80.00;;;;;;5053979;28;20057;-60
2023/11/30 01:53:59;;;;;;;2.85;2.25;;;2.50;80.10;;;;;;5052327;28;20071;-60
2023/11/30 01:56:26;;;;;;;7.05;2.85;;;2.50;80.10;;;;;;5048590;28;20016;-60
2023/11/30 01:58:52;;;;;;;4.25;2.67;;;2.50;80.10;;;;;;5053396;28;20438;-60
2023/11/30 02:01:18;;;;;;;4.22;3.22;;;2.50;80.10;;;;;;5053534;28;20029;-60
2023/11/30 02:03:45;;;;;;;4.90;3.08;;;2.50;80.10;;;;;;5052440;28;20104;-60
2023/11/30 02:06:16;;;;;;;4.07;2.97;;;2.50;80.20;;;;;;5059687;28;20027;-59
2023/11/30 02:08:58;;;;;;;4.22;2.33;;;2.50;80.20;;;;;;5053557;28;20033;-60
2023/11/30 02:11:24;;;;;;;4.15;2.70;;;2.60;80.30;;;;;;5047051;28;20083;-60
2023/11/30 02:13:50;;;;;;;70.43;3.47;;;2.60;80.40;;;;;;5045735;28;20396;-61
2023/11/30 02:16:15;;;;;;;5.25;3.17;;;2.60;80.40;;;;;;5052719;28;20033;-60
2023/11/30 02:18:41;;;;;;;9.48;3.92;;;2.70;80.60;;;;;;5057748;28;20132;-60
2023/11/30 02:21:07;;;;;;;4.03;2.70;;;2.70;80.50;;;;;;5061742;28;20067;-60
2023/11/30 02:23:33;;;;;;;4.13;3.05;;;2.80;80.70;;;;;;5056117;28;20044;-60
2023/11/30 02:25:58;;;;;;;9.82;3.80;;;2.80;80.80;;;;;;5056484;28;20021;-59
2023/11/30 02:28:24;;;;;;;15.27;3.70;;;2.80;80.90;;;;;;5054289;28;20027;-60
2023/11/30 02:30:50;;;;;;;6.05;3.17;;;2.80;81.00;;;;;;5053081;28;20030;-60
2023/11/30 02:33:16;;;;;;;4.80;3.25;;;2.90;81.20;;;;;;5064775;28;20067;-60
2023/11/30 02:35:41;;;;;;;4.70;3.17;;;2.90;81.20;;;;;;5061123;28;20035;-60
2023/11/30 02:38:07;;;;;;;20.88;3.38;;;2.90;81.30;;;;;;5058585;28;20072;-60
2023/11/30 02:40:33;;;;;;;5.35;3.58;;;2.90;81.50;;;;;;5052031;28;20039;-60
2023/11/30 02:42:58;;;;;;;32.13;3.85;;;2.90;81.60;;;;;;5052584;28;20074;-60
2023/11/30 02:45:24;;;;;;;12.30;3.92;;;2.90;81.70;;;;;;5053047;28;20036;-60
2023/11/30 02:47:50;;;;;;;3.95;3.15;;;2.90;81.80;;;;;;5051524;28;20033;-60
2023/11/30 02:50:15;;;;;;;7.35;3.55;;;2.90;81.80;;;;;;5051983;28;20115;-60
2023/11/30 02:52:41;;;;;;;4.22;3.00;;;3.00;81.80;;;;;;5049056;28;20151;-60
2023/11/30 02:55:07;;;;;;;6.18;3.78;;;3.00;81.90;;;;;;5050672;28;20037;-60
2023/11/30 02:57:33;;;;;;;5.53;3.72;;;3.00;82.00;;;;;;5050003;28;20096;-60
2023/11/30 02:59:59;;;;;;;4.95;3.40;;;3.00;82.00;;;;;;5050072;28;20028;-60
2023/11/30 03:02:25;;;;;;;4.65;3.22;;;3.00;82.10;;;;;;5051333;28;20029;-59
2023/11/30 03:04:51;;;;;;;9.40;3.78;;;3.00;82.00;;;;;;5046648;28;20022;-59
2023/11/30 03:07:16;;;;;;;6.97;3.53;;;3.00;82.00;;;;;;5043471;28;20025;-60
2023/11/30 03:09:42;;;;;;;5.28;2.90;;;3.00;82.10;;;;;;5047393;28;20051;-60
2023/11/30 03:12:08;;;;;;;5.93;4.47;;;3.00;82.10;;;;;;5051580;28;20028;-60
2023/11/30 03:14:34;;;;;;;6.30;3.72;;;3.00;82.20;;;;;;5048270;28;20114;-60
2023/11/30 03:16:59;;;;;;;6.80;3.30;;;3.00;82.30;;;;;;5053879;28;20028;-60
2023/11/30 03:19:25;;;;;;;6.13;4.20;;;3.10;82.30;;;;;;5048284;28;20060;-60
2023/11/30 03:21:52;;;;;;;4.18;3.15;;;3.10;82.30;;;;;;5059262;28;20040;-60
2023/11/30 03:24:20;;;;;;;5.45;3.97;;;3.10;82.20;;;;;;5054949;28;20423;-60
2023/11/30 03:26:46;;;;;;;5.85;3.70;;;3.20;82.20;;;;;;5046544;28;20529;-59
2023/11/30 03:29:12;;;;;;;8.40;4.05;;;3.20;82.20;;;;;;5050623;28;20127;-60
2023/11/30 03:31:37;;;;;;;5.82;3.83;;;3.20;82.20;;;;;;5058894;28;20075;-60
2023/11/30 03:34:03;;;;;;;5.63;4.45;;;3.20;82.20;;;;;;5047255;28;20083;-60
2023/11/30 03:36:29;;;;;;;5.97;3.70;;;3.20;82.30;;;;;;5049368;28;20108;-61
2023/11/30 03:38:55;;;;;;;8.57;3.70;;;3.20;82.20;;;;;;5050186;28;20111;-60
2023/11/30 03:41:22;;;;;;;6.95;4.03;;;3.20;82.20;;;;;;5050490;28;20025;-60
2023/11/30 03:43:48;;;;;;;5.03;3.90;;;3.20;82.30;;;;;;5045899;28;20056;-59
2023/11/30 03:46:14;;;;;;;6.68;3.65;;;3.20;82.30;;;;;;5043641;28;20020;-60
2023/11/30 03:48:40;;;;;;;5.13;3.95;;;3.20;82.30;;;;;;5040377;28;20120;-60
2023/11/30 03:51:07;;;;;;;7.07;3.75;;;3.20;82.30;;;;;;5038163;28;20537;-61
2023/11/30 03:53:32;;;;;;;6.40;3.60;;;3.20;82.30;;;;;;5038783;28;20029;-60
2023/11/30 03:56:02;;;;;;;5.97;2.92;;;3.20;82.30;;;;;;5022884;28;20484;-61
2023/11/30 03:58:28;;;;;;;3.83;3.28;;;3.20;82.30;;;;;;5035247;28;20104;-60
2023/11/30 04:00:53;;;;;;;5.30;3.75;;;3.20;82.30;;;;;;5034800;28;20124;-59
2023/11/30 04:03:19;;;;;;;4.13;3.05;;;3.20;82.30;;;;;;5042275;28;20476;-60
2023/11/30 04:05:45;;;;;;;5.70;3.45;;;3.20;82.30;;;;;;5043476;28;20044;-60
2023/11/30 04:08:11;;;;;;;4.95;4.07;;;3.20;82.20;;;;;;5044832;28;20021;-60
2023/11/30 04:10:36;;;;;;;5.57;3.75;;;3.20;82.20;;;;;;5041183;28;20461;-60
2023/11/30 04:13:02;;;;;;;9.73;3.72;;;3.20;82.20;;;;;;5032998;28;20103;-60
2023/11/30 04:15:28;;;;;;;4.53;2.90;;;3.20;82.20;;;;;;5042871;28;20458;-60
2023/11/30 04:17:54;;;;;;;3.67;3.22;;;3.10;82.30;;;;;;5036285;28;20072;-60
2023/11/30 04:20:20;;;;;;;5.50;3.47;;;3.10;82.40;;;;;;5039753;28;20056;-60
2023/11/30 04:22:45;;;;;;;4.00;3.38;;;3.10;82.50;;;;;;5038128;28;20021;-60
2023/11/30 04:25:11;;;;;;;4.65;3.15;;;3.10;82.40;;;;;;5047204;28;20033;-60
2023/11/30 04:27:37;;;;;;;8.38;3.40;;;3.10;82.30;;;;;;5039270;28;20026;-60
2023/11/30 04:30:04;;;;;;;7.00;3.17;;;3.10;82.40;;;;;;5044342;28;20033;-60
2023/11/30 04:32:30;;;;;;;6.25;3.22;;;3.10;82.30;;;;;;5048028;28;20032;-60
2023/11/30 04:34:55;;;;;;;5.07;3.40;;;3.20;82.30;;;;;;5040933;28;20029;-60
2023/11/30 04:37:21;;;;;;;5.95;3.58;;;3.20;82.20;;;;;;5050707;28;20036;-61
2023/11/30 04:39:48;;;;;;;4.53;3.42;;;3.20;82.20;;;;;;5049711;28;20021;-60
2023/11/30 04:42:14;;;;;;;6.18;3.72;;;3.20;82.20;;;;;;5056082;28;20480;-60
2023/11/30 04:44:39;;;;;;;5.53;3.35;;;3.20;82.10;;;;;;5045673;28;20032;-60
2023/11/30 04:47:06;;;;;;;6.82;3.10;;;3.20;82.00;;;;;;5057321;28;20017;-60
2023/11/30 04:49:32;;;;;;;5.63;4.10;;;3.20;82.00;;;;;;5046081;28;20083;-60
2023/11/30 04:51:57;;;;;;;7.38;3.53;;;3.20;82.00;;;;;;5054877;28;20059;-60
2023/11/30 04:54:23;;;;;;;4.97;3.63;;;3.10;82.10;;;;;;5057584;28;20036;-60
2023/11/30 04:56:49;;;;;;;6.18;3.97;;;3.10;82.20;;;;;;5048468;28;20113;-60
2023/11/30 04:59:14;;;;;;;4.82;2.88;;;3.10;82.20;;;;;;5052504;28;20068;-60
2023/11/30 05:01:40;;;;;;;3.97;3.05;;;3.00;82.20;;;;;;5055887;28;20477;-60
2023/11/30 05:04:06;;;;;;;4.00;3.03;;;3.00;82.20;;;;;;5052965;28;20169;-60
2023/11/30 05:06:32;;;;;;;4.43;3.08;;;3.00;82.10;;;;;;5052946;28;20009;-59
2023/11/30 05:08:57;;;;;;;5.13;3.58;;;3.00;82.20;;;;;;5055677;28;20166;-60
2023/11/30 05:11:24;;;;;;;4.32;3.35;;;3.00;82.10;;;;;;5052609;28;20059;-59
2023/11/30 05:13:49;;;;;;;7.75;3.95;;;3.00;82.10;;;;;;5056443;28;20040;-60
2023/11/30 05:16:15;;;;;;;5.68;4.50;;;3.00;82.00;;;;;;5061741;28;20033;-60
2023/11/30 05:18:41;;;;;;;4.68;3.92;;;3.00;82.00;;;;;;5047683;28;20409;-60
2023/11/30 05:21:07;;;;;;;5.85;3.22;;;3.00;82.10;;;;;;5050914;28;20404;-60
2023/11/30 05:23:33;;;;;;;6.65;3.30;;;3.00;82.10;;;;;;5042036;28;20368;-60
2023/11/30 05:25:58;;;;;;;3.83;3.28;;;3.00;82.10;;;;;;5052139;28;20108;-60
2023/11/30 05:28:24;;;;;;;3.58;3.10;;;3.00;82.10;;;;;;5046129;28;20032;-60
2023/11/30 05:30:50;;;;;;;4.82;3.22;;;3.00;82.10;;;;;;5045386;28;20381;-60
2023/11/30 05:33:16;;;;;;;6.95;3.90;;;3.00;82.10;;;;;;5044411;28;20583;-60
2023/11/30 05:35:42;;;;;;;4.90;3.35;;;3.00;82.10;;;;;;5049716;28;20029;-60
2023/11/30 05:38:08;;;;;;;6.72;4.22;;;3.00;82.20;;;;;;5050407;28;20040;-60
2023/11/30 05:40:33;;;;;;;6.75;3.42;;;3.00;82.10;;;;;;5035195;28;20036;-60
2023/11/30 05:42:59;;;;;;;4.53;3.38;;;3.10;82.10;;;;;;5047507;28;20429;-60
2023/11/30 05:45:27;;;;;;;5.18;3.42;;;3.10;82.00;;;;;;5046315;28;20111;-60
2023/11/30 05:47:53;;;;;;;5.82;3.67;;;3.20;82.00;;;;;;5054478;28;20163;-60
2023/11/30 05:50:19;;;;;;;5.22;4.15;;;3.10;81.90;;;;;;5047571;28;20052;-60
2023/11/30 05:52:45;;;;;;;7.28;3.90;;;3.10;81.90;;;;;;5052098;28;20029;-60
2023/11/30 05:55:11;;;;;;;6.13;3.53;;;3.10;82.00;;;;;;5052729;28;20112;-60
2023/11/30 05:57:37;;;;;;;6.43;3.78;;;3.20;82.00;;;;;;5051259;28;20059;-60
2023/11/30 06:00:04;;;;;;;4.40;3.45;;;3.10;82.00;;;;;;5052934;28;20059;-60
2023/11/30 06:02:31;;;;;;;7.00;3.55;;;3.20;82.20;;;;;;5045815;28;20036;-60
2023/11/30 06:04:57;;;;;;;5.25;3.92;;;3.20;82.20;;;;;;5050067;28;20030;-61
2023/11/30 06:07:23;;;;;;;5.82;3.47;;;3.20;82.20;;;;;;5047210;28;20031;-60
2023/11/30 06:09:52;;;;;;;6.50;4.00;;;3.20;82.30;;;;;;5051735;28;20118;-60
2023/11/30 06:12:17;;;;;;;4.88;3.83;;;3.20;82.40;;;;;;5049980;28;20059;-61
2023/11/30 06:14:43;;;;;;;4.50;3.58;;;3.20;82.40;;;;;;5049491;28;20473;-61
2023/11/30 06:17:09;;;;;;;6.32;4.05;;;3.20;82.30;;;;;;5052766;28;20483;-61
2023/11/30 06:19:34;;;;;;;4.82;3.38;;;3.20;82.30;;;;;;5058919;28;20044;-61
2023/11/30 06:22:01;;;;;;;6.22;3.70;;;3.30;82.30;;;;;;5048616;28;20123;-61
2023/11/30 06:24:28;;;;;;;5.32;3.55;;;3.20;82.20;;;;;;5044918;28;20033;-61
2023/11/30 06:26:54;;;;;;;8.68;3.60;;;3.30;82.30;;;;;;5048276;28;20017;-61
2023/11/30 06:29:21;;;;;;;6.05;4.07;;;3.30;82.30;;;;;;5043437;28;20427;-60
2023/11/30 06:31:47;;;;;;;6.70;4.45;;;3.30;82.40;;;;;;5042712;28;20445;-60
2023/11/30 06:34:12;;;;;;;6.43;4.78;;;3.30;82.40;;;;;;5049201;28;20117;-61
2023/11/30 06:36:38;;;;;;;10.73;4.50;;;3.30;82.40;;;;;;5050103;28;20043;-60
2023/11/30 06:39:04;;;;;;;6.28;4.22;;;3.40;82.40;;;;;;5036729;28;20067;-60
2023/11/30 06:41:30;;;;;;;7.03;4.68;;;3.40;82.40;;;;;;5053547;28;20041;-60
2023/11/30 06:43:56;;;;;;;9.95;4.47;;;3.40;82.40;;;;;;5050815;28;20401;-60
2023/11/30 06:46:23;;;;;;;7.72;3.90;;;3.40;82.40;;;;;;5049967;28;20041;-60
2023/11/30 06:48:51;;;;;;;6.47;4.00;;;3.40;82.50;;;;;;5050355;28;20021;-60
2023/11/30 06:51:17;;;;;;;5.95;3.75;;;3.40;82.60;;;;;;5060709;28;20097;-61
2023/11/30 06:53:44;;;;;;;7.97;3.50;;;3.40;82.50;;;;;;5048202;28;20025;-61
2023/11/30 06:56:11;;;;;;;5.88;4.05;;;3.40;82.50;;;;;;5050722;28;20484;-61
2023/11/30 06:58:37;;;;;;;5.55;3.40;;;3.40;82.60;;;;;;5050350;28;20079;-62
2023/11/30 07:01:12;;;;;;;7.22;4.03;;;3.40;82.60;;;;;;5054682;28;20028;-60
2023/11/30 07:03:37;;;;;;;5.50;4.13;;;3.50;82.60;;;;;;5059025;28;20048;-60
2023/11/30 07:06:03;;;;;;;7.30;4.40;;;3.50;82.60;;;;;;5039090;28;20029;-60
2023/11/30 07:08:29;;;;;;;5.50;3.45;;;3.50;82.60;;;;;;5049798;28;20090;-60
2023/11/30 07:10:54;;;;;;;5.78;4.30;;;3.50;82.60;;;;;;5045587;28;20033;-60
2023/11/30 07:13:20;;;;;;;9.73;4.68;;;3.50;82.60;;;;;;5045385;28;20575;-60
2023/11/30 07:15:46;;;;;;;6.75;4.25;;;3.50;82.50;;;;;;5042805;28;20102;-61
2023/11/30 07:18:13;;;;;;;7.90;4.85;;;3.60;82.60;;;;;;5047816;28;20036;-60
2023/11/30 07:20:40;;;;;;;7.07;5.13;;;3.60;82.60;;;;;;5055253;28;20052;-60
2023/11/30 07:23:05;;;;;;;6.30;4.22;;;3.60;82.60;;;;;;5051604;28;20430;-61
2023/11/30 07:25:31;;;;;;;8.13;4.63;;;3.60;82.60;;;;;;5048471;28;20028;-60
2023/11/30 07:27:57;;;;;;;7.32;4.97;;;3.60;82.70;;;;;;5048876;28;20020;-61
2023/11/30 07:30:23;;;;;;;8.00;5.68;;;3.60;83.40;;;;;;5047290;28;20043;-61
2023/11/30 07:32:49;;;;;;;8.07;4.32;;;3.60;82.80;;;;;;5043699;28;20022;-60
2023/11/30 07:35:14;;;;;;;8.55;5.63;;;3.60;82.80;;;;;;5048834;28;20081;-61
2023/11/30 07:37:42;;;;;;;9.40;4.65;;;3.60;82.80;;;;;;5055333;28;20383;-62
2023/11/30 07:40:08;;;;;;;7.00;4.72;;;3.60;82.90;;;;;;5047506;28;20033;-61
2023/11/30 07:42:34;;;;;;;8.77;5.28;;;3.60;82.90;;;;;;5051474;28;20140;-61
2023/11/30 07:45:01;;;;;;;10.15;5.50;;;3.70;83.00;;;;;;5048772;28;20628;-61
2023/11/30 07:47:27;;;;;;;7.82;5.18;;;3.60;82.90;;;;;;5056025;28;20024;-61
2023/11/30 07:49:54;;;;;;;8.57;5.80;;;3.60;83.00;;;;;;5047778;28;20082;-61
2023/11/30 07:52:19;;;;;;;7.95;5.22;;;3.70;83.20;;;;;;5048120;28;20514;-61
2023/11/30 07:54:46;;;;;;;6.78;4.93;;;3.60;83.20;;;;;;5047881;28;20029;-61
2023/11/30 07:57:11;;;;;;;6.88;4.80;;;3.70;83.30;;;;;;5044972;28;20049;-61
2023/11/30 07:59:37;;;;;;;8.93;4.68;;;3.70;83.30;;;;;;5038187;28;20152;-61
2023/11/30 08:02:04;;;;;;;10.57;6.32;;;3.70;83.30;;;;;;5052966;28;20028;-61
2023/11/30 08:04:30;;;;;;;8.25;4.28;;;3.70;83.30;;;;;;5052850;28;20033;-61
2023/11/30 08:06:55;;;;;;;13.23;5.88;;;3.80;83.30;;;;;;5040754;28;20044;-61
2023/11/30 08:09:21;;;;;;;10.68;4.55;;;3.80;83.30;;;;;;5036598;28;21315;-61
2023/11/30 08:11:48;;;;;;;7.18;4.65;;;3.80;83.30;;;;;;5043950;28;20040;-61
2023/11/30 08:14:14;;;;;;;6.13;4.72;;;3.80;83.20;;;;;;5028948;28;20061;-61
2023/11/30 08:16:39;;;;;;;8.82;3.95;;;3.90;83.20;;;;;;5052026;28;20389;-61
2023/11/30 08:19:05;;;;;;;7.43;4.15;;;3.80;83.10;;;;;;5058573;28;20048;-61
2023/11/30 08:21:31;;;;;;;9.85;4.50;;;3.80;83.20;;;;;;5038066;28;20033;-61
2023/11/30 08:23:57;;;;;;;9.70;4.93;;;3.80;83.30;;;;;;5055725;28;20223;-61
2023/11/30 08:26:22;;;;;;;6.10;3.70;;;3.80;83.30;;;;;;5050800;28;20025;-61
2023/11/30 08:28:50;;;;;;;6.85;5.13;;;3.70;83.30;;;;;;5044946;28;20476;-61
2023/11/30 08:31:16;;;;;;;6.32;4.25;;;3.80;83.40;;;;;;5052001;28;20120;-62
2023/11/30 08:33:41;;;;;;;7.60;5.47;;;3.80;83.40;;;;;;5056320;28;20120;-62
2023/11/30 08:36:08;;;;;;;9.52;6.20;;;3.70;83.40;;;;;;5056360;28;20098;-61
2023/11/30 08:38:36;;;;;;;9.25;5.10;;;3.80;83.50;;;;;;5056485;28;20127;-61
2023/11/30 08:41:03;;;;;;;6.90;5.25;;;3.80;83.50;;;;;;5053974;28;20037;-62
2023/11/30 08:43:29;;;;;;;6.82;4.85;;;3.80;83.40;;;;;;5047778;28;20391;-61
2023/11/30 08:45:54;;;;;;;6.40;4.68;;;3.80;83.40;;;;;;5050105;28;20039;-61
2023/11/30 08:48:20;;;;;;;7.57;5.25;;;3.80;83.40;;;;;;5053229;28;20032;-61
2023/11/30 08:50:47;;;;;;;9.57;5.47;;;3.90;83.40;;;;;;5047572;28;20169;-62
2023/11/30 08:53:13;;;;;;;6.90;4.78;;;3.90;83.30;;;;;;5048576;28;20037;-61
2023/11/30 08:55:39;;;;;;;8.43;5.03;;;3.90;83.30;;;;;;5055502;28;20975;-62
2023/11/30 08:58:05;;;;;;;8.20;5.25;;;3.90;83.30;;;;;;5053048;28;20114;-61
2023/11/30 09:00:31;;;;;;;6.13;4.72;;;3.90;83.40;;;;;;5048399;28;20033;-62
2023/11/30 09:02:57;;;;;;;8.50;4.93;;;3.90;83.40;;;;;;5043373;28;20029;-62
2023/11/30 09:05:23;;;;;;;11.10;5.97;;;3.90;83.40;;;;;;5052285;28;20475;-62
2023/11/30 09:07:52;;;;;;;6.60;4.13;;;4.00;83.50;;;;;;5049356;28;20147;-61
2023/11/30 09:10:20;;;;;;;7.38;5.50;;;4.00;83.40;;;;;;5041705;28;20056;-63
2023/11/30 09:12:46;;;;;;;10.15;5.20;;;4.00;83.40;;;;;;5051175;28;20122;-62
2023/11/30 09:15:12;;;;;;;6.30;4.45;;;4.00;83.30;;;;;;5060547;28;20135;-62
2023/11/30 09:17:39;;;;;;;7.72;5.05;;;4.00;83.30;;;;;;5053022;28;20033;-61
2023/11/30 09:20:08;;;;;;;7.70;4.40;;;4.10;83.40;;;;;;5058749;28;20458;-62
2023/11/30 09:22:35;;;;;;;8.35;4.90;;;4.10;83.40;;;;;;5030152;28;20053;-62
2023/11/30 09:25:01;;;;;;;9.80;5.40;;;4.10;83.40;;;;;;5048652;28;20033;-62
2023/11/30 09:27:26;;;;;;;12.52;6.20;;;4.20;83.40;;;;;;5042227;28;20435;-62
2023/11/30 09:29:52;;;;;;;11.18;5.30;;;4.10;83.40;;;;;;5057563;28;20079;-62
2023/11/30 09:32:18;;;;;;;11.05;6.00;;;4.10;83.40;;;;;;5054997;28;20072;-62
2023/11/30 09:34:44;;;;;;;7.68;4.97;;;4.10;83.50;;;;;;5050321;28;20054;-62
2023/11/30 09:37:10;;;;;;;9.88;5.35;;;4.10;83.60;;;;;;5052555;28;20036;-62
2023/11/30 09:39:36;;;;;;;8.65;5.80;;;4.20;83.60;;;;;;5054781;28;20024;-62
2023/11/30 09:42:05;;;;;;;11.02;6.50;;;4.20;83.50;;;;;;5055612;28;20025;-62
2023/11/30 09:44:32;;;;;;;9.43;5.25;;;4.20;83.50;;;;;;5056169;28;20025;-62
2023/11/30 09:46:57;;;;;;;7.28;5.43;;;4.30;83.50;;;;;;5051773;28;20025;-62
2023/11/30 09:49:24;;;;;;;9.45;5.80;;;4.30;83.50;;;;;;5063178;28;20488;-62
2023/11/30 09:51:51;;;;;;;11.38;5.88;;;4.30;83.50;;;;;;5058788;28;20459;-62
2023/11/30 09:54:19;;;;;;;8.98;5.75;;;4.30;83.40;;;;;;5057795;28;20422;-62
2023/11/30 09:56:45;;;;;;;8.13;5.22;;;4.40;83.40;;;;;;5052376;28;20033;-62
2023/11/30 09:59:11;;;;;;;8.75;5.50;;;4.40;83.40;;;;;;5047598;28;20426;-61
2023/11/30 10:01:39;;;;;;;8.35;6.40;;;4.40;83.40;;;;;;5040075;28;20037;-61
2023/11/30 10:04:17;;;;;;;8.65;5.60;;;4.40;83.40;;;;;;5033164;28;20043;-61
2023/11/30 10:06:46;;;;;;;8.85;6.25;;;4.50;83.30;;;;;;5043160;28;20033;-61
2023/11/30 10:09:13;;;;;;;9.82;6.03;;;4.50;83.40;;;;;;5045332;28;20048;-61
2023/11/30 10:11:42;;;;;;;7.68;4.50;;;4.50;83.40;;;;;;5039068;28;20620;-61
2023/11/30 10:14:09;;;;;;;8.50;5.50;;;4.50;83.40;;;;;;5051652;28;20083;-62
2023/11/30 10:16:35;;;;;;;12.88;6.38;;;4.50;83.40;;;;;;5037635;28;20120;-61
2023/11/30 10:19:02;;;;;;;9.52;6.88;;;4.50;83.30;;;;;;5045327;28;20053;-61
2023/11/30 10:21:28;;;;;;;9.25;6.65;;;4.50;83.40;;;;;;5043784;28;20476;-61
2023/11/30 10:23:54;;;;;;;10.18;6.68;;;4.50;83.40;;;;;;5049427;28;20496;-61
2023/11/30 10:26:22;;;;;;;8.55;6.35;;;4.50;83.40;;;;;;5051920;28;20082;-61
2023/11/30 10:28:52;;;;;;;12.95;7.43;;;4.60;83.50;;;;;;5053869;28;20037;-61
2023/11/30 10:31:21;;;;;;;10.10;6.25;;;4.60;83.50;;;;;;5050557;28;20033;-60
2023/11/30 10:34:03;;;;;;;11.10;7.60;;;4.70;83.50;;;;;;5055501;28;20051;-60
2023/11/30 10:36:31;;;;;;;12.55;7.32;;;4.60;83.40;;;;;;5039857;28;20033;-60
2023/11/30 10:39:01;;;;;;;11.10;7.55;;;4.70;83.60;;;;;;5047040;28;20035;-60
2023/11/30 10:41:33;;;;;;;10.50;6.97;;;4.70;83.50;;;;;;5049614;28;20353;-60
2023/11/30 10:44:00;;;;;;;11.15;7.90;;;4.80;83.40;;;;;;5042750;28;20087;-61
2023/11/30 10:46:27;;;;;;;10.38;7.53;;;4.80;83.40;;;;;;5045575;28;20408;-60
2023/11/30 10:48:54;;;;;;;12.13;8.48;;;4.90;83.30;;;;;;5045628;28;20035;-61
2023/11/30 10:51:22;;;;;;;10.45;7.28;;;4.90;83.30;;;;;;5046078;28;20036;-60
2023/11/30 10:54:37;;;;;;;10.15;7.18;;;4.90;83.40;;;;;;5036426;28;20032;-61
2023/11/30 10:57:03;;;;;;;12.27;7.28;;;5.00;83.20;;;;;;5023348;28;20496;-60
2023/11/30 10:59:33;;;;;;;14.55;8.27;;;5.00;83.30;;;;;;5017564;28;20467;-60
2023/11/30 11:01:59;;;;;;;11.80;7.55;;;5.10;83.10;;;;;;5030781;28;20057;-60
2023/11/30 11:04:27;;;;;;;13.85;8.55;;;5.20;83.10;;;;;;5043268;28;20113;-60
2023/11/30 11:07:11;;;;;;;16.77;9.93;;;5.20;82.90;;;;;;5044788;28;20028;-59
2023/11/30 11:09:41;;;;;;;14.95;9.05;;;5.20;82.80;;;;;;5043267;28;20064;-59
2023/11/30 11:12:37;;;;;;;14.15;8.18;;;5.20;82.90;;;;;;5052035;28;20043;-62
2023/11/30 11:15:11;;;;;;;15.10;9.43;;;5.10;82.80;;;;;;5049118;28;20056;-62
2023/11/30 11:17:48;;;;;;;14.05;8.82;;;5.10;83.10;;;;;;5033206;28;20672;-62
2023/11/30 11:20:28;;;;;;;16.15;8.38;;;5.10;83.20;;;;;;5038661;28;20045;-59
2023/11/30 11:22:55;;;;;;;15.73;10.73;;;5.10;83.20;;;;;;5037854;28;20060;-59
2023/11/30 11:25:21;;;;;;;16.52;9.25;;;5.00;83.20;;;;;;5043437;28;20484;-59
2023/11/30 11:27:46;;;;;;;20.45;8.93;;;5.00;83.30;;;;;;5043753;28;20047;-59
2023/11/30 11:30:14;;;;;;;18.50;10.27;;;5.00;83.50;;;;;;5048689;28;20033;-60
2023/11/30 11:32:40;;;;;;;16.55;9.43;;;5.00;83.40;;;;;;5048590;28;20029;-60
2023/11/30 11:35:07;;;;;;;15.68;8.77;;;5.00;83.40;;;;;;5050711;28;20017;-60
2023/11/30 11:37:33;;;;;;;18.40;10.90;;;5.00;83.40;;;;;;5053844;28;20512;-61
2023/11/30 11:40:00;;;;;;;19.77;10.13;;;5.00;83.50;;;;;;5038076;28;20120;-61
2023/11/30 11:42:26;;;;;;;20.27;11.48;;;4.90;83.60;;;;;;5040603;28;20041;-61
2023/11/30 11:44:52;;;;;;;17.60;12.23;;;4.90;83.60;;;;;;5045386;28;20040;-61
2023/11/30 11:47:19;;;;;;;21.10;11.98;;;4.90;83.60;;;;;;5050652;28;20024;-61
2023/11/30 11:49:45;;;;;;;15.32;9.18;;;4.90;83.80;;;;;;5042364;28;20021;-61
2023/11/30 11:52:18;;;;;;;23.05;11.63;;;5.00;83.80;;;;;;5041346;28;20040;-61
2023/11/30 11:54:44;;;;;;;27.58;13.52;;;5.00;83.70;;;;;;5045892;28;20531;-61
2023/11/30 11:57:10;;;;;;;16.88;11.10;;;5.00;83.80;;;;;;5039980;28;20464;-61
2023/11/30 11:59:36;;;;;;;24.58;12.55;;;5.00;83.80;;;;;;5052937;28;20025;-61
2023/11/30 12:02:02;;;;;;;23.80;12.00;;;5.00;83.80;;;;;;5041026;28;20122;-61
2023/11/30 12:04:33;;;;;;;22.38;11.75;;;5.00;83.90;;;;;;5043356;28;20036;-61
2023/11/30 12:07:10;;;;;;;20.13;11.60;;;5.00;84.00;;;;;;5044941;28;20033;-61
2023/11/30 12:09:37;;;;;;;20.73;11.55;;;5.00;84.00;;;;;;5044032;28;20507;-61
2023/11/30 12:12:06;;;;;;;18.65;12.05;;;5.00;83.90;;;;;;5050722;28;20733;-61
2023/11/30 12:14:31;;;;;;;18.25;10.98;;;5.00;83.90;;;;;;5047546;28;20533;-61
2023/11/30 12:16:57;;;;;;;21.88;11.45;;;5.00;83.90;;;;;;5046069;28;20053;-61
2023/11/30 12:19:23;;;;;;;20.50;11.00;;;5.00;83.90;;;;;;5049085;28;20506;-61
2023/11/30 12:21:49;;;;;;;23.45;12.40;;;5.10;84.00;;;;;;5054404;28;20047;-61
2023/11/30 12:24:15;;;;;;;22.63;13.40;;;5.10;83.90;;;;;;5047770;28;20033;-61
2023/11/30 12:26:41;;;;;;;18.35;10.15;;;5.10;83.90;;;;;;5044310;28;20098;-61
2023/11/30 12:29:08;;;;;;;22.25;11.98;;;5.10;83.90;;;;;;5045721;28;20366;-61
2023/11/30 12:31:34;;;;;;;17.98;9.27;;;5.10;84.00;;;;;;5050733;28;20043;-61
2023/11/30 12:34:00;;;;;;;18.50;10.77;;;5.10;84.10;;;;;;5047840;28;20537;-61
2023/11/30 12:36:27;;;;;;;24.25;13.80;;;5.10;84.00;;;;;;5046875;28;20373;-61
2023/11/30 12:38:52;;;;;;;25.58;12.15;;;5.10;84.10;;;;;;5036716;28;20029;-61
2023/11/30 12:41:18;;;;;;;21.80;11.88;;;5.10;84.20;;;;;;5046618;28;20039;-61
2023/11/30 12:43:44;;;;;;;20.58;11.63;;;5.20;84.20;;;;;;5046084;28;20024;-61
2023/11/30 12:46:10;;;;;;;24.08;12.27;;;5.30;84.20;;;;;;5034813;28;20668;-62
2023/11/30 12:48:36;;;;;;;21.75;12.70;;;5.20;84.10;;;;;;5039421;28;20100;-62
2023/11/30 12:51:02;;;;;;;20.67;11.32;;;5.30;84.00;;;;;;5040494;28;20044;-62